Decoded Metar for KCDW (CALDWELL in NJ, USA) (IATA:CDW) | Meteo·Mobile Aviation Weather
aviador You're here:

KCDW Decoded Metar

CALDWELL in NJ, USA
Report Time2018-11-18 09:53:00
UTC Time2018-11-18 10:15:27
Flight Rules vfr VFR
WindCalm
Visibility9999 m
Phenomena:N/A
Clouds:Few 100 Hf
Overcast 110 Hf
Expected CloudBase > 2,800 ft AGL from Temp-Dew spread
Ceiling11,000 ft
Temp03°C (ISA -12)
Dew Point-4°C (60% RH)
AAT0.5°C
QNH1027 hPa
Density Alt-1,608 ft
Elevation210 ft
Report Wrong Elevation
Raw Report
KCDW 180953Z AUTO 00000KT 10SM FEW100 OVC110 03/M04 A3034 RMK AO2
SLP281 T00331039=

Extra information for KCDW:More info

Metar Taf Metar & Taf Last 4 Metars F.Rules Stats Wind Profile Meteogram Temp Stats Airport Information Weather charts Add Link Nearby VenuesMetar ALERT Operation Metar Decoded Social comments

AIRNAV info for KCDW